createdAt,value
2017-12-22T00:00:12.265Z,20.61
2017-12-22T00:00:42.274Z,20.61
2017-12-22T00:01:12.277Z,20.61
2017-12-22T00:01:42.275Z,20.61
2017-12-22T00:02:12.277Z,20.61
2017-12-22T00:02:42.280Z,20.61
2017-12-22T00:03:12.273Z,20.61
2017-12-22T00:03:42.282Z,20.59
2017-12-22T00:04:12.280Z,20.61
2017-12-22T00:04:42.284Z,20.59
2017-12-22T00:05:12.280Z,20.61
2017-12-22T00:05:42.280Z,20.59
2017-12-22T00:06:12.288Z,20.59
2017-12-22T00:06:42.296Z,20.59
2017-12-22T00:07:12.291Z,20.62
2017-12-22T00:07:42.302Z,20.61
2017-12-22T00:08:12.300Z,20.61
2017-12-22T00:08:42.293Z,20.61
2017-12-22T00:09:12.305Z,20.59
2017-12-22T00:09:42.296Z,20.61
2017-12-22T00:10:12.298Z,20.61
2017-12-22T00:10:42.301Z,20.59
2017-12-22T00:11:12.302Z,20.61
2017-12-22T00:11:42.304Z,20.59
2017-12-22T00:12:12.302Z,20.59
2017-12-22T00:12:42.307Z,20.59
2017-12-22T00:13:12.303Z,20.59
2017-12-22T00:13:42.320Z,20.61
2017-12-22T00:14:12.370Z,20.61
2017-12-22T00:14:42.309Z,20.61
2017-12-22T00:15:12.311Z,20.59
2017-12-22T00:15:42.317Z,20.61
2017-12-22T00:16:12.326Z,20.61
2017-12-22T00:16:42.322Z,20.61
2017-12-22T00:17:12.334Z,20.59
2017-12-22T00:17:42.326Z,20.59
2017-12-22T00:18:12.319Z,20.59
2017-12-22T00:18:42.329Z,20.61
2017-12-22T00:19:12.326Z,20.61
2017-12-22T00:19:42.331Z,20.59
2017-12-22T00:20:12.335Z,20.59
2017-12-22T00:20:42.328Z,20.59
2017-12-22T00:21:12.334Z,20.59
2017-12-22T00:21:42.339Z,20.61
2017-12-22T00:22:12.335Z,20.61
2017-12-22T00:22:42.339Z,20.59
2017-12-22T00:23:12.335Z,20.58
2017-12-22T00:23:42.341Z,20.59
2017-12-22T00:24:12.340Z,20.59
2017-12-22T00:24:42.351Z,20.59
2017-12-22T00:25:12.351Z,20.61
2017-12-22T00:25:42.353Z,20.61
2017-12-22T00:26:12.348Z,20.61
2017-12-22T00:26:42.346Z,20.61
2017-12-22T00:27:12.347Z,20.61
2017-12-22T00:27:42.349Z,20.58
2017-12-22T00:28:12.360Z,20.61
2017-12-22T00:28:42.363Z,20.61
2017-12-22T00:29:12.360Z,20.61
2017-12-22T00:29:42.422Z,20.61
2017-12-22T00:30:12.357Z,20.61
2017-12-22T00:30:42.365Z,20.61
2017-12-22T00:31:12.360Z,20.61
2017-12-22T00:31:42.375Z,20.59
2017-12-22T00:32:12.374Z,20.59
2017-12-22T00:32:42.376Z,20.61
2017-12-22T00:33:12.368Z,20.59
2017-12-22T00:33:42.374Z,20.59
2017-12-22T00:34:12.373Z,20.59
2017-12-22T00:34:42.373Z,20.59
2017-12-22T00:35:12.377Z,20.59
2017-12-22T00:35:42.381Z,20.59
2017-12-22T00:36:12.382Z,20.61
2017-12-22T00:36:42.382Z,20.61
2017-12-22T00:37:12.380Z,20.59
2017-12-22T00:37:42.387Z,20.59
2017-12-22T00:38:12.389Z,20.61
2017-12-22T00:38:42.391Z,20.59
2017-12-22T00:39:12.385Z,20.59
2017-12-22T00:39:42.392Z,20.59
2017-12-22T00:40:12.393Z,20.61
2017-12-22T00:40:42.389Z,20.59
2017-12-22T00:41:12.400Z,20.61
2017-12-22T00:41:42.400Z,20.59
2017-12-22T00:42:12.404Z,20.59
2017-12-22T00:42:42.410Z,20.59
2017-12-22T00:43:12.398Z,20.59
2017-12-22T00:43:42.405Z,20.59
2017-12-22T00:44:12.411Z,20.59
2017-12-22T00:44:42.406Z,20.58
2017-12-22T00:45:12.402Z,20.58
2017-12-22T00:45:42.415Z,20.59
2017-12-22T00:46:12.407Z,20.58
2017-12-22T00:46:42.417Z,20.59
2017-12-22T00:47:12.416Z,20.59
2017-12-22T00:47:42.413Z,20.59
2017-12-22T00:48:12.426Z,20.59
2017-12-22T00:48:42.426Z,20.58
2017-12-22T00:49:12.418Z,20.59
2017-12-22T00:49:42.418Z,20.59
2017-12-22T00:50:12.427Z,20.59
2017-12-22T00:50:42.424Z,20.58
2017-12-22T00:51:12.427Z,20.59
2017-12-22T00:51:42.430Z,20.59
2017-12-22T00:52:12.429Z,20.58
2017-12-22T00:52:42.436Z,20.58
2017-12-22T00:53:12.432Z,20.59
2017-12-22T00:53:42.438Z,20.59
2017-12-22T00:54:12.451Z,20.59
2017-12-22T00:54:42.444Z,20.59
2017-12-22T00:55:12.447Z,20.59
2017-12-22T00:55:42.442Z,20.59
2017-12-22T00:56:12.438Z,20.61
2017-12-22T00:56:42.441Z,20.58
2017-12-22T00:57:12.445Z,20.58
2017-12-22T00:57:42.450Z,20.59
2017-12-22T00:58:12.447Z,20.59
2017-12-22T00:58:42.454Z,20.59
2017-12-22T00:59:12.458Z,20.58
2017-12-22T00:59:42.450Z,20.58
2017-12-22T01:00:12.458Z,20.59
2017-12-22T01:00:42.453Z,20.58
2017-12-22T01:01:12.460Z,20.59
2017-12-22T01:01:42.464Z,20.59
2017-12-22T01:02:12.472Z,20.58
2017-12-22T01:02:42.458Z,20.58
2017-12-22T01:03:12.466Z,20.58
2017-12-22T01:03:42.469Z,20.59
2017-12-22T01:04:12.473Z,20.59
2017-12-22T01:04:42.471Z,20.58
2017-12-22T01:05:12.475Z,20.59
2017-12-22T01:05:42.479Z,20.59
2017-12-22T01:06:12.477Z,20.58
2017-12-22T01:06:42.472Z,20.59
2017-12-22T01:07:12.483Z,20.61
2017-12-22T01:07:42.483Z,20.59
2017-12-22T01:08:12.478Z,20.58
2017-12-22T01:08:42.482Z,20.59
2017-12-22T01:09:12.493Z,20.58
2017-12-22T01:09:42.486Z,20.58
2017-12-22T01:10:12.488Z,20.59
2017-12-22T01:10:42.484Z,20.58
2017-12-22T01:11:12.496Z,20.58
2017-12-22T01:11:42.496Z,20.58
2017-12-22T01:12:12.489Z,20.58
2017-12-22T01:12:42.496Z,20.58
2017-12-22T01:13:12.504Z,20.58
2017-12-22T01:13:42.495Z,20.58
2017-12-22T01:14:12.500Z,20.59
2017-12-22T01:14:42.501Z,20.59
2017-12-22T01:15:12.506Z,20.59
2017-12-22T01:15:42.500Z,20.58
2017-12-22T01:16:12.502Z,20.58
2017-12-22T01:16:42.512Z,20.58
2017-12-22T01:17:12.511Z,20.58
2017-12-22T01:17:42.515Z,20.58
2017-12-22T01:18:12.510Z,20.59
2017-12-22T01:18:42.513Z,20.58
2017-12-22T01:19:12.545Z,20.57
2017-12-22T01:19:42.516Z,20.57
2017-12-22T01:20:12.552Z,20.58
2017-12-22T01:20:42.516Z,20.58
2017-12-22T01:21:12.522Z,20.58
2017-12-22T01:21:42.516Z,20.59
2017-12-22T01:22:12.530Z,20.58
2017-12-22T01:22:42.527Z,20.57
2017-12-22T01:23:12.534Z,20.58
2017-12-22T01:23:42.524Z,20.58
2017-12-22T01:24:12.532Z,20.59
2017-12-22T01:24:42.528Z,20.58
2017-12-22T01:25:12.537Z,20.58
2017-12-22T01:25:42.537Z,20.58
2017-12-22T01:26:12.534Z,20.58
2017-12-22T01:26:42.539Z,20.57
2017-12-22T01:27:12.573Z,20.57
2017-12-22T01:27:42.547Z,20.57
2017-12-22T01:28:12.541Z,20.58
2017-12-22T01:28:42.548Z,20.58
2017-12-22T01:29:12.554Z,20.58
2017-12-22T01:29:42.549Z,20.58
2017-12-22T01:30:12.551Z,20.58
2017-12-22T01:30:42.553Z,20.58
2017-12-22T01:31:12.553Z,20.57
2017-12-22T01:31:42.549Z,20.58
2017-12-22T01:32:12.554Z,20.59
2017-12-22T01:32:42.556Z,20.59
2017-12-22T01:33:12.553Z,20.59
2017-12-22T01:33:42.561Z,20.59
2017-12-22T01:34:12.558Z,20.58
2017-12-22T01:34:42.559Z,20.58
2017-12-22T01:35:12.567Z,20.61
2017-12-22T01:35:42.568Z,20.59
2017-12-22T01:36:12.575Z,20.58
2017-12-22T01:36:42.612Z,20.58
2017-12-22T01:37:12.568Z,20.58
2017-12-22T01:37:42.577Z,20.58
2017-12-22T01:38:12.569Z,20.59
2017-12-22T01:38:42.582Z,20.58
2017-12-22T01:39:12.580Z,20.58
2017-12-22T01:39:42.578Z,20.58
2017-12-22T01:40:12.576Z,20.59
2017-12-22T01:40:42.586Z,20.58
2017-12-22T01:41:12.581Z,20.59
2017-12-22T01:41:42.586Z,20.58
2017-12-22T01:42:12.582Z,20.59
2017-12-22T01:42:42.615Z,20.58
2017-12-22T01:43:12.585Z,20.57
2017-12-22T01:43:42.596Z,20.58
2017-12-22T01:44:12.588Z,20.58
2017-12-22T01:44:42.590Z,20.58
2017-12-22T01:45:12.594Z,20.57
2017-12-22T01:45:42.595Z,20.58
2017-12-22T01:46:12.600Z,20.57
2017-12-22T01:46:42.598Z,20.57
2017-12-22T01:47:12.606Z,20.57
2017-12-22T01:47:42.611Z,20.59
2017-12-22T01:48:12.606Z,20.58
2017-12-22T01:48:42.606Z,20.58
2017-12-22T01:49:12.602Z,20.57
2017-12-22T01:49:42.609Z,20.57
2017-12-22T01:50:12.607Z,20.58
2017-12-22T01:50:42.607Z,20.58
2017-12-22T01:51:12.614Z,20.58
2017-12-22T01:51:42.615Z,20.58
2017-12-22T01:52:12.623Z,20.58
2017-12-22T01:52:42.625Z,20.58
2017-12-22T01:53:12.614Z,20.57
2017-12-22T01:53:42.622Z,20.58
2017-12-22T01:54:12.629Z,20.58
2017-12-22T01:54:42.625Z,20.58
2017-12-22T01:55:12.626Z,20.57
2017-12-22T01:55:42.629Z,20.57
2017-12-22T01:56:12.637Z,20.57
2017-12-22T01:56:42.659Z,20.57
2017-12-22T01:57:12.639Z,20.57
2017-12-22T01:57:42.640Z,20.55
2017-12-22T01:58:12.633Z,20.55
2017-12-22T01:58:42.661Z,20.58
2017-12-22T01:59:12.638Z,20.57
2017-12-22T01:59:42.636Z,20.58
2017-12-22T02:00:12.653Z,20.58
2017-12-22T02:00:42.656Z,20.57
2017-12-22T02:01:12.651Z,20.58
2017-12-22T02:01:42.651Z,20.58
2017-12-22T02:02:12.648Z,20.57
2017-12-22T02:02:42.653Z,20.57
2017-12-22T02:03:12.660Z,20.57
2017-12-22T02:03:42.650Z,20.57
2017-12-22T02:04:12.654Z,20.57
2017-12-22T02:04:42.654Z,20.58
2017-12-22T02:05:12.656Z,20.57
2017-12-22T02:05:42.660Z,20.55
2017-12-22T02:06:12.656Z,20.58
2017-12-22T02:06:42.657Z,20.58
2017-12-22T02:07:12.662Z,20.57
2017-12-22T02:07:42.666Z,20.57
2017-12-22T02:08:12.666Z,20.57
2017-12-22T02:08:42.674Z,20.57
2017-12-22T02:09:12.668Z,20.57
2017-12-22T02:09:42.669Z,20.57
2017-12-22T02:10:12.674Z,20.57
2017-12-22T02:10:42.675Z,20.57
2017-12-22T02:11:12.677Z,20.57
2017-12-22T02:11:42.674Z,20.57
2017-12-22T02:12:12.673Z,20.58
2017-12-22T02:12:42.682Z,20.57
2017-12-22T02:13:12.688Z,20.58
2017-12-22T02:13:42.682Z,20.55
2017-12-22T02:14:12.684Z,20.57
2017-12-22T02:14:42.687Z,20.57
2017-12-22T02:15:12.696Z,20.57
2017-12-22T02:15:42.688Z,20.57
2017-12-22T02:16:12.686Z,20.57
2017-12-22T02:16:42.700Z,20.57
2017-12-22T02:17:12.689Z,20.58
2017-12-22T02:17:42.694Z,20.58
2017-12-22T02:18:12.700Z,20.57
2017-12-22T02:18:42.695Z,20.58
2017-12-22T02:19:12.695Z,20.58
2017-12-22T02:19:42.709Z,20.57
2017-12-22T02:20:12.711Z,20.58
2017-12-22T02:20:42.712Z,20.57
2017-12-22T02:21:12.760Z,20.57
2017-12-22T02:21:42.709Z,20.57
2017-12-22T02:22:12.710Z,20.58
2017-12-22T02:22:42.710Z,20.55
2017-12-22T02:23:12.718Z,20.57
2017-12-22T02:23:42.721Z,20.57
2017-12-22T02:24:12.712Z,20.57
2017-12-22T02:24:42.716Z,20.57
2017-12-22T02:25:12.727Z,20.57
2017-12-22T02:25:42.716Z,20.57
2017-12-22T02:26:12.730Z,20.55
2017-12-22T02:26:42.724Z,20.57
2017-12-22T02:27:12.725Z,20.57
2017-12-22T02:27:42.738Z,20.57
2017-12-22T02:28:12.730Z,20.55
2017-12-22T02:28:42.735Z,20.57
2017-12-22T02:29:12.733Z,20.57
2017-12-22T02:29:42.731Z,20.58
2017-12-22T02:30:12.735Z,20.58
2017-12-22T02:30:42.735Z,20.57
2017-12-22T02:31:12.740Z,20.58
2017-12-22T02:31:42.736Z,20.58
2017-12-22T02:32:12.756Z,20.57
2017-12-22T02:32:42.738Z,20.57
2017-12-22T02:33:12.741Z,20.57
2017-12-22T02:33:42.751Z,20.57
2017-12-22T02:34:12.746Z,20.55
2017-12-22T02:34:42.744Z,20.58
2017-12-22T02:35:12.758Z,20.58
2017-12-22T02:35:42.749Z,20.57
2017-12-22T02:36:12.756Z,20.58
2017-12-22T02:36:42.760Z,20.57
2017-12-22T02:37:12.755Z,20.55
2017-12-22T02:37:42.752Z,20.57
2017-12-22T02:38:12.771Z,20.57
2017-12-22T02:38:42.756Z,20.57
2017-12-22T02:39:12.765Z,20.57
2017-12-22T02:39:42.770Z,20.57
2017-12-22T02:40:12.768Z,20.55
2017-12-22T02:40:42.773Z,20.57
2017-12-22T02:41:12.792Z,20.57
2017-12-22T02:41:42.770Z,20.57
2017-12-22T02:42:12.776Z,20.57
2017-12-22T02:42:42.768Z,20.57
2017-12-22T02:43:12.775Z,20.57
2017-12-22T02:43:42.837Z,20.55
2017-12-22T02:44:12.780Z,20.57
2017-12-22T02:44:42.782Z,20.57
2017-12-22T02:45:12.776Z,20.58
2017-12-22T02:45:42.783Z,20.57
2017-12-22T02:46:12.782Z,20.58
2017-12-22T02:46:42.781Z,20.57
2017-12-22T02:47:12.783Z,20.58
2017-12-22T02:47:42.791Z,20.57
2017-12-22T02:48:12.796Z,20.58
2017-12-22T02:48:42.789Z,20.57
2017-12-22T02:49:12.793Z,20.55
2017-12-22T02:49:42.795Z,20.55
2017-12-22T02:50:12.798Z,20.57
2017-12-22T02:50:42.793Z,20.57
2017-12-22T02:51:12.795Z,20.57
2017-12-22T02:51:42.805Z,20.57
2017-12-22T02:52:12.800Z,20.57
2017-12-22T02:52:42.811Z,20.57
2017-12-22T02:53:12.807Z,20.55
2017-12-22T02:53:42.806Z,20.57
2017-12-22T02:54:12.808Z,20.57
2017-12-22T02:54:42.807Z,20.58
2017-12-22T02:55:12.812Z,20.57
2017-12-22T02:55:42.809Z,20.57
2017-12-22T02:56:12.817Z,20.57
2017-12-22T02:56:42.813Z,20.57
2017-12-22T02:57:12.824Z,20.55
2017-12-22T02:57:42.819Z,20.57
2017-12-22T02:58:12.824Z,20.55
2017-12-22T02:58:42.825Z,20.55
2017-12-22T02:59:12.826Z,20.57
2017-12-22T02:59:42.824Z,20.57
2017-12-22T03:00:12.828Z,20.55
2017-12-22T03:00:42.828Z,20.57
2017-12-22T03:01:12.835Z,20.55
2017-12-22T03:01:42.837Z,20.55
2017-12-22T03:02:12.844Z,20.55
2017-12-22T03:02:42.837Z,20.55
2017-12-22T03:03:12.840Z,20.57
2017-12-22T03:03:42.843Z,20.54
2017-12-22T03:04:12.839Z,20.55
2017-12-22T03:04:42.848Z,20.57
2017-12-22T03:05:12.852Z,20.57
2017-12-22T03:05:42.851Z,20.57
2017-12-22T03:06:12.852Z,20.57
2017-12-22T03:06:42.852Z,20.57
2017-12-22T03:07:12.854Z,20.57
2017-12-22T03:07:42.853Z,20.55
2017-12-22T03:08:12.847Z,20.55
2017-12-22T03:08:42.859Z,20.57
2017-12-22T03:09:12.854Z,20.57
2017-12-22T03:09:42.851Z,20.58
2017-12-22T03:10:12.865Z,20.57
2017-12-22T03:10:42.859Z,20.58
2017-12-22T03:11:12.859Z,20.58
2017-12-22T03:11:42.870Z,20.57
2017-12-22T03:12:12.867Z,20.57
2017-12-22T03:12:42.869Z,20.57
2017-12-22T03:13:12.875Z,20.55
2017-12-22T03:13:42.873Z,20.55
2017-12-22T03:14:12.867Z,20.58
2017-12-22T03:14:42.913Z,20.57
2017-12-22T03:15:12.879Z,20.57
2017-12-22T03:15:42.877Z,20.57
2017-12-22T03:16:12.874Z,20.57
2017-12-22T03:16:42.887Z,20.58
2017-12-22T03:17:12.882Z,20.57
2017-12-22T03:17:42.892Z,20.57
2017-12-22T03:18:12.880Z,20.57
2017-12-22T03:18:42.882Z,20.57
2017-12-22T03:19:12.888Z,20.55
2017-12-22T03:19:42.890Z,20.57
2017-12-22T03:20:12.886Z,20.55
2017-12-22T03:20:42.892Z,20.57
2017-12-22T03:21:12.889Z,20.58
2017-12-22T03:21:42.899Z,20.55
2017-12-22T03:22:12.904Z,20.57
2017-12-22T03:22:42.894Z,20.57
2017-12-22T03:23:12.894Z,20.57
2017-12-22T03:23:42.896Z,20.57
2017-12-22T03:24:12.903Z,20.55
2017-12-22T03:24:42.899Z,20.57
2017-12-22T03:25:12.914Z,20.57
2017-12-22T03:25:42.908Z,20.57
2017-12-22T03:26:12.910Z,20.57
2017-12-22T03:26:42.913Z,20.57
2017-12-22T03:27:12.983Z,20.57
2017-12-22T03:27:42.912Z,20.55
2017-12-22T03:28:12.909Z,20.57
2017-12-22T03:28:42.912Z,20.57
2017-12-22T03:29:12.922Z,20.57
2017-12-22T03:29:42.913Z,20.55
2017-12-22T03:30:12.922Z,20.57
2017-12-22T03:30:42.924Z,20.57
2017-12-22T03:31:12.925Z,20.57
2017-12-22T03:31:42.921Z,20.55
2017-12-22T03:32:12.924Z,20.55
2017-12-22T03:32:42.934Z,20.57
2017-12-22T03:33:12.936Z,20.57
2017-12-22T03:33:42.930Z,20.57
2017-12-22T03:34:12.930Z,20.55
2017-12-22T03:34:42.940Z,20.58
2017-12-22T03:35:12.934Z,20.57
2017-12-22T03:35:42.936Z,20.55
2017-12-22T03:36:12.936Z,20.58
2017-12-22T03:36:42.944Z,20.55
2017-12-22T03:37:12.998Z,20.55
2017-12-22T03:37:42.944Z,20.57
2017-12-22T03:38:12.944Z,20.55
2017-12-22T03:38:42.953Z,20.57
2017-12-22T03:39:12.949Z,20.55
2017-12-22T03:39:42.956Z,20.55
2017-12-22T03:40:12.954Z,20.57
2017-12-22T03:40:42.964Z,20.55
2017-12-22T03:41:12.951Z,20.57
2017-12-22T03:41:42.953Z,20.55
2017-12-22T03:42:12.964Z,20.55
2017-12-22T03:42:42.960Z,20.54
2017-12-22T03:43:12.966Z,20.57
2017-12-22T03:43:42.969Z,20.57
2017-12-22T03:44:12.962Z,20.55
2017-12-22T03:44:42.972Z,20.54
2017-12-22T03:45:12.961Z,20.55
2017-12-22T03:45:42.969Z,20.57
2017-12-22T03:46:12.971Z,20.55
2017-12-22T03:46:42.967Z,20.55
2017-12-22T03:47:12.978Z,20.55
2017-12-22T03:47:42.975Z,20.55
2017-12-22T03:48:12.978Z,20.55
2017-12-22T03:48:42.984Z,20.57
2017-12-22T03:49:12.979Z,20.55
2017-12-22T03:49:42.978Z,20.57
2017-12-22T03:50:12.984Z,20.55
2017-12-22T03:50:42.983Z,20.55
2017-12-22T03:51:12.987Z,20.55
2017-12-22T03:51:42.994Z,20.55
2017-12-22T03:52:12.990Z,20.55
2017-12-22T03:52:42.996Z,20.57
2017-12-22T03:53:12.995Z,20.55
2017-12-22T03:53:42.988Z,20.55
2017-12-22T03:54:12.993Z,20.55
2017-12-22T03:54:43.002Z,20.55
2017-12-22T03:55:13.001Z,20.55
2017-12-22T03:55:43.004Z,20.55
2017-12-22T03:56:13.003Z,20.55
2017-12-22T03:56:42.999Z,20.55
2017-12-22T03:57:13.006Z,20.57
2017-12-22T03:57:43.007Z,20.55
2017-12-22T03:58:13.010Z,20.54
2017-12-22T03:58:43.003Z,20.55
2017-12-22T03:59:13.008Z,20.55
2017-12-22T03:59:43.012Z,20.55
2017-12-22T04:00:13.020Z,20.55
2017-12-22T04:00:43.011Z,20.55
2017-12-22T04:01:13.012Z,20.57
2017-12-22T04:01:43.019Z,20.55
2017-12-22T04:02:13.022Z,20.55
2017-12-22T04:02:43.026Z,20.55
2017-12-22T04:03:13.029Z,20.54
2017-12-22T04:03:43.020Z,20.55
2017-12-22T04:04:13.022Z,20.55
2017-12-22T04:04:43.028Z,20.55
2017-12-22T04:05:13.027Z,20.55
2017-12-22T04:05:43.031Z,20.55
2017-12-22T04:06:13.053Z,20.57
2017-12-22T04:06:43.040Z,20.55
2017-12-22T04:07:13.036Z,20.55
2017-12-22T04:07:43.033Z,20.54
2017-12-22T04:08:13.038Z,20.55
2017-12-22T04:08:43.043Z,20.55
2017-12-22T04:09:13.041Z,20.55
2017-12-22T04:09:43.042Z,20.55
2017-12-22T04:10:13.051Z,20.57
2017-12-22T04:10:43.044Z,20.55
2017-12-22T04:11:13.060Z,20.55
2017-12-22T04:11:43.055Z,20.54
2017-12-22T04:12:13.046Z,20.55
2017-12-22T04:12:43.048Z,20.55
2017-12-22T04:13:13.055Z,20.55
2017-12-22T04:13:43.056Z,20.55
2017-12-22T04:14:13.063Z,20.57
2017-12-22T04:14:43.059Z,20.55
2017-12-22T04:15:13.057Z,20.55
2017-12-22T04:15:43.063Z,20.55
2017-12-22T04:16:13.066Z,20.55
2017-12-22T04:16:43.070Z,20.55
2017-12-22T04:17:13.071Z,20.55
2017-12-22T04:17:43.064Z,20.55
2017-12-22T04:18:13.064Z,20.55
2017-12-22T04:18:43.084Z,20.55
2017-12-22T04:19:13.075Z,20.54
2017-12-22T04:19:43.074Z,20.55
2017-12-22T04:20:13.081Z,20.55
2017-12-22T04:20:43.078Z,20.55
2017-12-22T04:21:13.079Z,20.55
2017-12-22T04:21:43.076Z,20.57
2017-12-22T04:22:13.089Z,20.55
2017-12-22T04:22:43.084Z,20.57
2017-12-22T04:23:13.105Z,20.54
2017-12-22T04:23:43.086Z,20.55
2017-12-22T04:24:13.088Z,20.55
2017-12-22T04:24:43.088Z,20.55
2017-12-22T04:25:13.090Z,20.55
2017-12-22T04:25:43.088Z,20.57
2017-12-22T04:26:13.088Z,20.55
2017-12-22T04:26:43.099Z,20.55
2017-12-22T04:27:13.095Z,20.57
2017-12-22T04:27:43.095Z,20.55
2017-12-22T04:28:13.134Z,20.55
2017-12-22T04:28:43.104Z,20.55
2017-12-22T04:29:13.098Z,20.55
2017-12-22T04:29:43.102Z,20.57
2017-12-22T04:30:13.114Z,20.57
2017-12-22T04:30:43.107Z,20.57
2017-12-22T04:31:13.108Z,20.55
2017-12-22T04:31:43.146Z,20.55
2017-12-22T04:32:13.114Z,20.55
2017-12-22T04:32:43.113Z,20.57
2017-12-22T04:33:13.122Z,20.55
2017-12-22T04:33:43.123Z,20.55
2017-12-22T04:34:13.120Z,20.55
2017-12-22T04:34:43.120Z,20.57
2017-12-22T04:35:13.116Z,20.55
2017-12-22T04:35:43.131Z,20.55
2017-12-22T04:36:13.125Z,20.55
2017-12-22T04:36:43.124Z,20.54
2017-12-22T04:37:13.127Z,20.55
2017-12-22T04:37:43.124Z,20.57
2017-12-22T04:38:13.131Z,20.55
2017-12-22T04:38:43.131Z,20.55
2017-12-22T04:39:13.139Z,20.55
2017-12-22T04:39:43.131Z,20.55
2017-12-22T04:40:13.132Z,20.57
2017-12-22T04:40:43.144Z,20.55
2017-12-22T04:41:13.135Z,20.55
2017-12-22T04:41:43.144Z,20.55
2017-12-22T04:42:13.139Z,20.55
2017-12-22T04:42:43.145Z,20.55
2017-12-22T04:43:13.146Z,20.55
2017-12-22T04:43:43.144Z,20.55
2017-12-22T04:44:13.207Z,20.55
2017-12-22T04:44:43.153Z,20.55
2017-12-22T04:45:13.155Z,20.55
2017-12-22T04:45:43.168Z,20.54
2017-12-22T04:46:13.151Z,20.55
2017-12-22T04:46:43.158Z,20.55
2017-12-22T04:47:13.153Z,20.55
2017-12-22T04:47:43.169Z,20.54
2017-12-22T04:48:13.162Z,20.54
2017-12-22T04:48:43.162Z,20.54
2017-12-22T04:49:13.173Z,20.55
2017-12-22T04:49:43.173Z,20.54
2017-12-22T04:50:13.170Z,20.54
2017-12-22T04:50:43.168Z,20.54
2017-12-22T04:51:13.165Z,20.55
2017-12-22T04:51:43.173Z,20.55
2017-12-22T04:52:13.175Z,20.55
2017-12-22T04:52:43.177Z,20.55
2017-12-22T04:53:13.171Z,20.55
2017-12-22T04:53:43.213Z,20.55
2017-12-22T04:54:13.174Z,20.55
2017-12-22T04:54:43.175Z,20.54
2017-12-22T04:55:13.179Z,20.55
2017-12-22T04:55:43.181Z,20.55
2017-12-22T04:56:13.183Z,20.54
2017-12-22T04:56:43.189Z,20.54
2017-12-22T04:57:13.184Z,20.55
2017-12-22T04:57:43.189Z,20.55
2017-12-22T04:58:13.192Z,20.55
2017-12-22T04:58:43.194Z,20.55
2017-12-22T04:59:13.192Z,20.55
2017-12-22T04:59:43.198Z,20.55
2017-12-22T05:00:13.200Z,20.55
2017-12-22T05:00:43.205Z,20.55
2017-12-22T05:01:13.202Z,20.55
2017-12-22T05:01:43.204Z,20.55
2017-12-22T05:02:13.199Z,20.55
2017-12-22T05:02:43.207Z,20.55
2017-12-22T05:03:13.213Z,20.55
2017-12-22T05:03:43.207Z,20.55
2017-12-22T05:04:13.209Z,20.55
2017-12-22T05:04:43.218Z,20.55
2017-12-22T05:05:13.214Z,20.54
2017-12-22T05:05:43.218Z,20.55
2017-12-22T05:06:13.216Z,20.55
2017-12-22T05:06:43.219Z,20.55
2017-12-22T05:07:13.230Z,20.54
2017-12-22T05:07:43.217Z,20.55
2017-12-22T05:08:13.230Z,20.55
2017-12-22T05:08:43.229Z,20.55
2017-12-22T05:09:13.228Z,20.54
2017-12-22T05:09:43.229Z,20.54
2017-12-22T05:10:13.236Z,20.55
2017-12-22T05:10:43.232Z,20.55
2017-12-22T05:11:13.226Z,20.55
2017-12-22T05:11:43.236Z,20.55
2017-12-22T05:12:13.237Z,20.55
2017-12-22T05:12:43.240Z,20.54
2017-12-22T05:13:13.242Z,20.54
2017-12-22T05:13:43.278Z,20.54
2017-12-22T05:14:13.240Z,20.55
2017-12-22T05:14:43.239Z,20.54
2017-12-22T05:15:13.240Z,20.54
2017-12-22T05:15:43.247Z,20.55
2017-12-22T05:16:13.242Z,20.55
2017-12-22T05:16:43.256Z,20.52
2017-12-22T05:17:13.253Z,20.55
2017-12-22T05:17:43.251Z,20.54
2017-12-22T05:18:13.256Z,20.55
2017-12-22T05:18:43.262Z,20.57
2017-12-22T05:19:13.255Z,20.55
2017-12-22T05:19:43.265Z,20.55
2017-12-22T05:20:13.259Z,20.54
2017-12-22T05:20:43.267Z,20.54
2017-12-22T05:21:13.266Z,20.55
2017-12-22T05:21:43.270Z,20.55
2017-12-22T05:22:13.276Z,20.55
2017-12-22T05:22:43.263Z,20.54
2017-12-22T05:23:13.269Z,20.57
2017-12-22T05:23:43.273Z,20.54
2017-12-22T05:24:13.268Z,20.55
2017-12-22T05:24:43.271Z,20.55
2017-12-22T05:25:13.271Z,20.55
2017-12-22T05:25:43.279Z,20.54
2017-12-22T05:26:13.277Z,20.55
2017-12-22T05:26:43.281Z,20.55
2017-12-22T05:27:13.370Z,20.55
2017-12-22T05:27:43.282Z,20.55
2017-12-22T05:28:13.282Z,20.55
2017-12-22T05:28:43.314Z,20.55
2017-12-22T05:29:13.289Z,20.55
2017-12-22T05:29:43.295Z,20.54
2017-12-22T05:30:13.293Z,20.54
2017-12-22T05:30:43.287Z,20.54
2017-12-22T05:31:13.291Z,20.55
2017-12-22T05:31:43.298Z,20.54
2017-12-22T05:32:13.297Z,20.57
2017-12-22T05:32:43.299Z,20.55
2017-12-22T05:33:13.302Z,20.55
2017-12-22T05:33:43.303Z,20.55
2017-12-22T05:34:13.302Z,20.55
2017-12-22T05:34:43.311Z,20.54
2017-12-22T05:35:13.304Z,20.55
2017-12-22T05:35:43.336Z,20.55
2017-12-22T05:36:13.311Z,20.55
2017-12-22T05:36:43.321Z,20.55
2017-12-22T05:37:13.308Z,20.55
2017-12-22T05:37:43.310Z,20.57
2017-12-22T05:38:13.318Z,20.57
2017-12-22T05:38:43.323Z,20.54
2017-12-22T05:39:13.318Z,20.55
2017-12-22T05:39:43.328Z,20.54
2017-12-22T05:40:13.389Z,20.54
2017-12-22T05:40:43.323Z,20.55
2017-12-22T05:41:13.332Z,20.54
2017-12-22T05:41:43.321Z,20.54
2017-12-22T05:42:13.323Z,20.57
2017-12-22T05:42:43.338Z,20.57
2017-12-22T05:43:13.337Z,20.55
2017-12-22T05:43:43.338Z,20.55
2017-12-22T05:44:13.335Z,20.54
2017-12-22T05:44:43.337Z,20.54
2017-12-22T05:45:13.336Z,20.54
2017-12-22T05:45:43.332Z,20.55
2017-12-22T05:46:13.336Z,20.55
2017-12-22T05:46:43.344Z,20.55
2017-12-22T05:47:13.343Z,20.54
2017-12-22T05:47:43.340Z,20.55
2017-12-22T05:48:13.342Z,20.54
2017-12-22T05:48:43.344Z,20.54
2017-12-22T05:49:13.344Z,20.55
2017-12-22T05:49:43.349Z,20.54
2017-12-22T05:50:13.348Z,20.55
2017-12-22T05:50:43.353Z,20.55
2017-12-22T05:51:13.370Z,20.55
2017-12-22T05:51:43.358Z,20.55
2017-12-22T05:52:13.358Z,20.55
2017-12-22T05:52:43.367Z,20.55
2017-12-22T05:53:13.357Z,20.55
2017-12-22T05:53:43.358Z,20.54
2017-12-22T05:54:13.360Z,20.54
2017-12-22T05:54:43.361Z,20.54
2017-12-22T05:55:13.371Z,20.54
2017-12-22T05:55:43.373Z,20.55
2017-12-22T05:56:13.366Z,20.54
2017-12-22T05:56:43.376Z,20.55
2017-12-22T05:57:13.368Z,20.55
2017-12-22T05:57:43.389Z,20.57
2017-12-22T05:58:13.377Z,20.57
2017-12-22T05:58:43.378Z,20.55
2017-12-22T05:59:13.382Z,20.57
2017-12-22T05:59:43.388Z,20.57
2017-12-22T06:00:13.386Z,20.57
2017-12-22T06:00:43.386Z,20.57
2017-12-22T06:01:13.388Z,20.55
2017-12-22T06:01:43.390Z,20.55
2017-12-22T06:02:13.388Z,20.55
2017-12-22T06:02:43.404Z,20.54
2017-12-22T06:03:13.397Z,20.55
2017-12-22T06:03:43.389Z,20.55
2017-12-22T06:04:13.392Z,20.57
2017-12-22T06:04:43.403Z,20.55
2017-12-22T06:05:13.400Z,20.55
2017-12-22T06:05:43.396Z,20.57
2017-12-22T06:06:13.401Z,20.55
2017-12-22T06:06:43.401Z,20.55
2017-12-22T06:07:13.411Z,20.55
2017-12-22T06:07:43.416Z,20.55
2017-12-22T06:08:13.403Z,20.55
2017-12-22T06:08:43.405Z,20.57
2017-12-22T06:09:13.424Z,20.55
2017-12-22T06:09:43.433Z,20.55
2017-12-22T06:10:13.416Z,20.55
2017-12-22T06:10:43.423Z,20.55
2017-12-22T06:11:13.424Z,20.54
2017-12-22T06:11:43.426Z,20.57
2017-12-22T06:12:13.422Z,20.54
2017-12-22T06:12:43.422Z,20.54
2017-12-22T06:13:13.419Z,20.54
2017-12-22T06:13:43.423Z,20.55
2017-12-22T06:14:13.429Z,20.55
2017-12-22T06:14:43.443Z,20.55
2017-12-22T06:15:13.433Z,20.57
2017-12-22T06:15:43.432Z,20.54
2017-12-22T06:16:13.485Z,20.55
2017-12-22T06:16:43.435Z,20.55
2017-12-22T06:17:13.499Z,20.55
2017-12-22T06:17:43.490Z,20.55
2017-12-22T06:18:13.439Z,20.54
2017-12-22T06:18:43.448Z,20.55
2017-12-22T06:19:13.444Z,20.55
2017-12-22T06:19:43.471Z,20.55
2017-12-22T06:20:13.442Z,20.54
2017-12-22T06:20:43.445Z,20.55
2017-12-22T06:21:13.447Z,20.55
2017-12-22T06:21:43.460Z,20.55
2017-12-22T06:22:13.459Z,20.55
2017-12-22T06:22:43.457Z,20.55
2017-12-22T06:23:13.455Z,20.57
2017-12-22T06:23:43.451Z,20.55
2017-12-22T06:24:13.454Z,20.55
2017-12-22T06:24:43.462Z,20.54
2017-12-22T06:25:13.466Z,20.57
2017-12-22T06:25:43.465Z,20.55
2017-12-22T06:26:13.467Z,20.55